Capitol Logistics 2061

Operating for MET



KMCI
Kansas City International Airport
Kansas City, Missouri
KBOS
Logan International Airport
Boston, Massachusetts

Route Details

Aircraft Information
Primary: Boeing 767-300BDSF
Backup: Boeing 757-200SF
Route Data
Distance: 1090nm
Duration: 2h 39m
Recm'd Route: LAKES2 SPI ROD KLYNE Q29 JHW Q82 PONCT JFUND2
Origin Wx: KMCI 180253Z 28003KT 10SM BKN070 OVC085 10/06 A3006 RMK AO2 RAB33E44 SLP180 P0000 60006 T01000061 53006
Dest. Wx: KBOS 180254Z 30004KT 10SM OVC060 09/02 A2978 RMK AO2 SLP084 T00890017 50000
Notes: OPF METRO AIR VIRTUAL